San Juan, PR

10:08 AM AST en Noviembre 22, 2014 (GMT -0400)
Condado, Calle Earle, At The Ocean | Change Station
CLOSE
Current Station
Estación meteorológica personal
Location: San Juan, SAN JUAN
Altura: 10 ft
Estaciones meteorológicas cercanas
Aviso en curso: Flash Flood Watch

Alt 10 ft 18.46 °N, 66.07 °W | Updated 2 seconds ago

Light Rain
Lluvia débil
78.4 ° F
Sensación térmica 82 ° F
N
16.0
Viento Variable Viento desde NE
Gusts 18.0 mph

Hoy
Alta -- | Baja -- ° F
--% Posibilidad de precipitaciones
Ayer
Alta -- | Baja -- ° F
Precip. -- pul
6:34 AM 5:46 PM
Luna nueva, 0% visible
Presión 30.04 pul
Visibilidad 10.0 Millas
Nubes Baja 1800 ft
Muy nublado 4000 ft
Índice de calor 82 ° F
Punto de rocío 76 ° F
Humedad 92%
Precipitaciones 0.51 pul
Espesor de la nieve No disponible.
UV 3 de una escala de 12
Polen No disponible.
Calidad del aire No disponible.
Flu Activity No disponible.
METAR TJSJ 221356Z COR 07005KT 10SM -RA FEW018 BKN040 27/25 A3004 RMK AO2 SLP173 VIS LWR W P0001 T02720250

More Conditions Fewer Conditions

Presión 30.04 pul
Visibilidad 10.0 Millas
Nubes Baja 1800 ft
Muy nublado 4000 ft
Índice de calor 82 ° F
Punto de rocío 76 ° F
Humedad 92%
Precipitaciones 0.51 pul
Espesor de la nieve No disponible.
UV 3 de una escala de 12
Polen No disponible.
Calidad del aire No disponible.
Flu Activity No disponible.
METAR TJSJ 221356Z COR 07005KT 10SM -RA FEW018 BKN040 27/25 A3004 RMK AO2 SLP173 VIS LWR W P0001 T02720250

More Conditions Fewer Conditions

10-Day Weather Forecast

Almanac

Astronomía

Nov. 22, 2014 Salida Puesta
Hora real
Crepúsculo civil
Crepúsculo náutico
Crepúsculo astronómico
Luna
Horas de luz
Horas de luz
Tomorrow will be .
, % of the Moon is Illuminated

Extremos de hoy

Máximos del estado Bajos del estado

Community

WunderPhotos

Upload Photos

1,772,817 ¡fotos cargadas!

WunderBlogs® & News

Nearby

Calidad del aire

  Calidad del aire Índice AQ Contaminante
Not available.

Grosos de nieve

Estación Profundido Altura

Actividad de terremotos

Ciudad Distance Mag. Tiempo y dato
Magnitud mínima muestra es 2,5.

Temperaturas de aguas costeras

Lugar Temperatura

Estaciones meteorológicas cercanas